createdAt,value
2018-12-18T00:00:41.577Z,8.03
2018-12-18T00:04:06.405Z,8.07
2018-12-18T00:07:31.048Z,7.99
2018-12-18T00:11:00.794Z,8.05
2018-12-18T00:14:25.493Z,8.10
2018-12-18T00:17:50.286Z,8.32
2018-12-18T00:21:15.095Z,8.36
2018-12-18T00:24:39.787Z,8.06
2018-12-18T00:28:04.420Z,8.25
2018-12-18T00:31:29.141Z,8.37
2018-12-18T00:34:53.785Z,8.35
2018-12-18T00:38:18.454Z,8.43
2018-12-18T00:41:43.876Z,8.44
2018-12-18T00:45:11.560Z,8.52
2018-12-18T00:48:36.237Z,8.60
2018-12-18T00:52:00.866Z,8.56
2018-12-18T00:55:25.518Z,8.61
2018-12-18T00:58:50.180Z,8.60
2018-12-18T01:02:14.835Z,8.47
2018-12-18T01:05:39.481Z,8.14
2018-12-18T01:09:05.220Z,8.26
2018-12-18T01:12:29.835Z,8.28
2018-12-18T01:15:54.493Z,8.17
2018-12-18T01:19:19.160Z,8.31
2018-12-18T01:22:43.838Z,8.00
2018-12-18T01:26:08.504Z,7.92
2018-12-18T01:29:33.175Z,8.20
2018-12-18T01:32:57.819Z,8.05
2018-12-18T01:36:22.468Z,8.19
2018-12-18T01:39:47.068Z,8.02
2018-12-18T01:43:11.765Z,8.11
2018-12-18T01:46:36.509Z,8.11
2018-12-18T01:50:01.219Z,7.92
2018-12-18T01:53:25.888Z,7.82
2018-12-18T01:56:50.530Z,7.70
2018-12-18T02:00:15.195Z,7.72
2018-12-18T02:03:39.852Z,7.60
2018-12-18T02:07:04.556Z,7.67
2018-12-18T02:10:29.259Z,7.61
2018-12-18T02:13:53.932Z,7.46
2018-12-18T02:17:18.651Z,7.49
2018-12-18T02:20:43.363Z,7.42
2018-12-18T02:24:08.073Z,7.36
2018-12-18T02:27:32.780Z,7.32
2018-12-18T02:30:57.447Z,7.34
2018-12-18T02:34:22.125Z,7.35
2018-12-18T02:37:46.928Z,7.40
2018-12-18T02:41:11.597Z,7.53
2018-12-18T02:44:36.213Z,7.50
2018-12-18T02:48:00.990Z,7.57
2018-12-18T02:51:25.783Z,7.50
2018-12-18T02:54:50.482Z,7.63
2018-12-18T02:58:15.176Z,7.44
2018-12-18T03:01:39.795Z,7.65
2018-12-18T03:05:04.747Z,7.61
2018-12-18T03:08:29.470Z,7.58
2018-12-18T03:11:54.171Z,7.34
2018-12-18T03:15:18.879Z,7.54
2018-12-18T03:18:44.006Z,7.50
2018-12-18T03:22:08.658Z,7.60
2018-12-18T03:25:33.367Z,7.86
2018-12-18T03:28:58.331Z,7.81
2018-12-18T03:32:28.939Z,7.82
2018-12-18T03:35:53.655Z,7.91
2018-12-18T03:39:18.298Z,8.02
2018-12-18T03:42:42.987Z,7.84
2018-12-18T03:46:07.714Z,7.78
2018-12-18T03:49:32.423Z,7.85
2018-12-18T03:52:57.119Z,8.13
2018-12-18T03:56:21.804Z,8.07
2018-12-18T03:59:46.488Z,7.93
2018-12-18T04:03:11.203Z,8.13
2018-12-18T04:06:35.928Z,8.04
2018-12-18T04:10:00.653Z,7.97
2018-12-18T04:13:25.337Z,7.83
2018-12-18T04:16:50.026Z,7.81
2018-12-18T04:20:14.836Z,7.71
2018-12-18T04:23:39.540Z,7.60
2018-12-18T04:27:04.293Z,7.45
2018-12-18T04:30:28.945Z,7.46
2018-12-18T04:33:53.559Z,7.32
2018-12-18T04:37:18.227Z,7.14
2018-12-18T04:40:42.843Z,7.30
2018-12-18T04:44:07.666Z,7.15
2018-12-18T04:47:32.264Z,7.08
2018-12-18T04:50:56.893Z,7.11
2018-12-18T04:54:21.528Z,6.90
2018-12-18T04:57:46.120Z,7.07
2018-12-18T05:01:10.783Z,7.00
2018-12-18T05:04:35.571Z,7.09
2018-12-18T05:08:00.239Z,7.05
2018-12-18T05:11:24.900Z,7.06
2018-12-18T05:14:49.520Z,6.95
2018-12-18T05:18:14.179Z,6.91
2018-12-18T05:21:38.826Z,6.87
2018-12-18T05:25:03.451Z,6.98
2018-12-18T05:28:28.101Z,7.00
2018-12-18T05:31:52.777Z,6.96
2018-12-18T05:35:17.411Z,6.91
2018-12-18T05:38:42.246Z,6.88
2018-12-18T05:42:06.898Z,6.75
2018-12-18T05:45:31.575Z,6.81
2018-12-18T05:48:56.180Z,6.64
2018-12-18T05:52:20.828Z,6.78
2018-12-18T05:55:45.540Z,6.83
2018-12-18T05:59:10.115Z,6.93
2018-12-18T06:02:34.718Z,6.78
2018-12-18T06:05:59.415Z,6.86
2018-12-18T06:09:24.089Z,6.88
2018-12-18T06:12:48.770Z,6.91
2018-12-18T06:16:13.434Z,6.98
2018-12-18T06:19:38.096Z,6.94
2018-12-18T06:23:02.737Z,6.90
2018-12-18T06:26:27.451Z,6.94
2018-12-18T06:29:52.166Z,6.76
2018-12-18T06:33:16.814Z,6.91
2018-12-18T06:36:41.525Z,6.88
2018-12-18T06:40:07.053Z,6.95
2018-12-18T06:43:31.712Z,6.77
2018-12-18T06:46:56.538Z,6.75
2018-12-18T06:50:21.238Z,6.81
2018-12-18T06:53:46.191Z,6.86
2018-12-18T06:57:10.960Z,6.95
2018-12-18T07:00:35.557Z,6.79
2018-12-18T07:04:00.146Z,6.82
2018-12-18T07:07:24.760Z,6.95
2018-12-18T07:10:49.443Z,6.91
2018-12-18T07:14:14.067Z,6.82
2018-12-18T07:17:38.732Z,6.89
2018-12-18T07:21:03.545Z,6.86
2018-12-18T07:24:28.235Z,6.58
2018-12-18T07:27:53.019Z,6.74
2018-12-18T07:31:17.810Z,6.72
2018-12-18T07:34:42.751Z,6.71
2018-12-18T07:38:07.657Z,6.71
2018-12-18T07:41:32.442Z,6.80
2018-12-18T07:44:57.211Z,6.86
2018-12-18T07:48:22.009Z,6.64
2018-12-18T07:51:46.773Z,6.55
2018-12-18T07:55:11.649Z,6.97
2018-12-18T07:58:36.309Z,7.07
2018-12-18T08:02:01.108Z,7.20
2018-12-18T08:05:29.917Z,7.12
2018-12-18T08:08:52.528Z,7.34
2018-12-18T08:12:19.443Z,7.37
2018-12-18T08:15:44.242Z,7.53
2018-12-18T08:19:09.078Z,7.54
2018-12-18T08:22:33.816Z,7.57
2018-12-18T08:25:58.540Z,7.43
2018-12-18T08:29:23.238Z,7.61
2018-12-18T08:32:48.061Z,7.52
2018-12-18T08:36:12.782Z,7.85
2018-12-18T08:39:37.534Z,7.67
2018-12-18T08:43:02.199Z,7.59
2018-12-18T08:46:30.571Z,7.52
2018-12-18T08:49:55.236Z,7.63
2018-12-18T08:53:19.898Z,7.76
2018-12-18T08:56:44.528Z,7.71
2018-12-18T09:00:10.435Z,7.79
2018-12-18T09:03:35.034Z,7.90
2018-12-18T09:06:59.726Z,7.81
2018-12-18T09:10:24.419Z,7.98
2018-12-18T09:13:49.180Z,8.07
2018-12-18T09:17:15.880Z,8.35
2018-12-18T09:20:40.639Z,8.47
2018-12-18T09:24:05.540Z,8.67
2018-12-18T09:27:30.260Z,8.85
2018-12-18T09:30:54.969Z,8.97
2018-12-18T09:34:19.868Z,9.56
2018-12-18T09:37:44.657Z,10.53
2018-12-18T09:41:15.015Z,11.71
2018-12-18T09:44:39.794Z,12.42
2018-12-18T09:48:04.539Z,13.28
2018-12-18T09:51:29.257Z,14.14
2018-12-18T09:54:54.104Z,14.65
2018-12-18T09:58:18.914Z,14.44
2018-12-18T10:01:43.702Z,14.93
2018-12-18T10:05:08.518Z,14.64
2018-12-18T10:08:35.024Z,15.72
2018-12-18T10:11:59.700Z,15.21
2018-12-18T10:15:25.255Z,16.07
2018-12-18T10:18:49.916Z,16.28
2018-12-18T10:22:14.547Z,16.46
2018-12-18T10:25:39.260Z,16.54
2018-12-18T10:29:03.972Z,15.88
2018-12-18T10:32:28.630Z,15.95
2018-12-18T10:35:53.291Z,14.57
2018-12-18T10:39:17.938Z,13.88
2018-12-18T10:42:42.629Z,13.85
2018-12-18T10:46:07.306Z,13.60
2018-12-18T10:49:31.975Z,13.65
2018-12-18T10:52:56.798Z,13.51
2018-12-18T10:56:21.644Z,12.80
2018-12-18T10:59:46.294Z,12.40
2018-12-18T11:03:10.956Z,12.61
2018-12-18T11:06:35.646Z,12.49
2018-12-18T11:10:01.169Z,12.08
2018-12-18T11:13:25.847Z,11.91
2018-12-18T11:16:50.511Z,11.89
2018-12-18T11:20:15.234Z,12.79
2018-12-18T11:23:40.012Z,12.34
2018-12-18T11:27:04.684Z,12.12
2018-12-18T11:30:29.422Z,12.27
2018-12-18T11:33:54.209Z,12.12
2018-12-18T11:37:18.951Z,12.35
2018-12-18T11:40:43.721Z,12.44
2018-12-18T11:44:08.441Z,12.20
2018-12-18T11:47:33.354Z,12.04
2018-12-18T11:50:58.180Z,11.98
2018-12-18T11:54:23.041Z,11.82
2018-12-18T11:57:47.856Z,12.60
2018-12-18T12:01:12.713Z,12.67
2018-12-18T12:04:37.455Z,12.65
2018-12-18T12:08:02.306Z,13.06
2018-12-18T12:11:26.972Z,13.90
2018-12-18T12:14:51.750Z,13.19
2018-12-18T12:18:16.395Z,13.99
2018-12-18T12:21:41.647Z,14.61
2018-12-18T12:25:07.309Z,15.74
2018-12-18T12:28:31.909Z,15.37
2018-12-18T12:31:56.531Z,15.06
2018-12-18T12:35:21.202Z,15.74
2018-12-18T12:38:45.918Z,14.18
2018-12-18T12:42:10.660Z,15.30
2018-12-18T12:45:35.619Z,13.98
2018-12-18T12:52:38.630Z,14.89
2018-12-18T12:56:03.324Z,15.83
2018-12-18T12:59:28.034Z,15.17
2018-12-18T13:02:52.693Z,13.97
2018-12-18T13:06:17.380Z,13.56
2018-12-18T13:09:42.123Z,13.93
2018-12-18T13:13:06.793Z,13.47
2018-12-18T13:16:31.410Z,14.28
2018-12-18T13:19:56.018Z,14.31
2018-12-18T13:23:20.764Z,13.58
2018-12-18T13:26:45.410Z,13.29
2018-12-18T13:30:10.181Z,12.49
2018-12-18T13:33:34.786Z,12.55
2018-12-18T13:36:59.407Z,12.53
2018-12-18T13:40:24.034Z,12.78
2018-12-18T13:43:48.640Z,12.74
2018-12-18T13:47:13.256Z,12.93
2018-12-18T13:50:37.887Z,12.98
2018-12-18T13:54:02.531Z,13.03
2018-12-18T13:57:27.214Z,12.20
2018-12-18T14:00:51.817Z,11.93
2018-12-18T14:04:16.440Z,12.16
2018-12-18T14:07:41.080Z,11.77
2018-12-18T14:11:05.721Z,11.12
2018-12-18T14:14:30.368Z,10.75
2018-12-18T14:17:55.115Z,10.71
2018-12-18T14:21:19.737Z,10.91
2018-12-18T14:24:44.361Z,10.89
2018-12-18T14:28:09.098Z,10.75
2018-12-18T14:31:33.739Z,10.51
2018-12-18T14:34:58.373Z,10.30
2018-12-18T14:38:22.973Z,10.11
2018-12-18T14:41:47.600Z,9.78
2018-12-18T14:45:12.254Z,9.96
2018-12-18T14:48:36.866Z,9.92
2018-12-18T14:52:01.530Z,9.61
2018-12-18T14:55:26.210Z,9.34
2018-12-18T14:58:50.815Z,9.56
2018-12-18T15:02:15.515Z,9.24
2018-12-18T15:05:40.280Z,9.22
2018-12-18T15:09:07.101Z,9.02
2018-12-18T15:12:31.737Z,9.00
2018-12-18T15:15:56.397Z,8.87
2018-12-18T15:19:21.034Z,9.11
2018-12-18T15:22:45.656Z,8.89
2018-12-18T15:26:10.325Z,8.71
2018-12-18T15:29:35.806Z,8.59
2018-12-18T15:33:00.572Z,8.70
2018-12-18T15:36:25.217Z,8.82
2018-12-18T15:39:49.808Z,8.79
2018-12-18T15:43:14.406Z,8.61
2018-12-18T15:46:39.060Z,8.53
2018-12-18T15:50:03.714Z,8.71
2018-12-18T15:53:28.301Z,8.65
2018-12-18T15:56:52.933Z,8.61
2018-12-18T16:00:17.710Z,8.68
2018-12-18T16:03:42.393Z,8.69
2018-12-18T16:07:07.029Z,8.49
2018-12-18T16:10:31.638Z,8.61
2018-12-18T16:13:56.255Z,8.61
2018-12-18T16:17:20.854Z,8.57
2018-12-18T16:20:45.460Z,8.45
2018-12-18T16:24:10.063Z,8.51
2018-12-18T16:27:34.685Z,8.61
2018-12-18T16:30:59.281Z,8.47
2018-12-18T16:34:23.910Z,8.50
2018-12-18T16:37:48.509Z,8.52
2018-12-18T16:41:13.170Z,8.59
2018-12-18T16:44:37.799Z,8.66
2018-12-18T16:48:02.426Z,8.39
2018-12-18T16:51:27.040Z,8.26
2018-12-18T16:54:51.687Z,8.39
2018-12-18T16:58:16.275Z,8.34
2018-12-18T17:01:40.871Z,8.33
2018-12-18T17:05:07.018Z,8.40
2018-12-18T17:08:32.231Z,8.36
2018-12-18T17:11:57.072Z,8.46
2018-12-18T17:15:21.702Z,8.39
2018-12-18T17:18:46.374Z,8.36
2018-12-18T17:22:11.006Z,8.39
2018-12-18T17:25:35.595Z,8.42
2018-12-18T17:29:00.196Z,8.38
2018-12-18T17:32:25.385Z,8.28
2018-12-18T17:35:50.216Z,8.29
2018-12-18T17:39:15.012Z,8.53
2018-12-18T17:42:39.685Z,8.23
2018-12-18T17:46:04.437Z,8.57
2018-12-18T17:49:29.049Z,8.34
2018-12-18T17:52:53.865Z,8.56
2018-12-18T17:56:18.543Z,8.48
2018-12-18T17:59:43.265Z,8.40
2018-12-18T18:03:08.008Z,8.31
2018-12-18T18:06:32.676Z,8.34
2018-12-18T18:09:58.168Z,8.25
2018-12-18T18:13:23.091Z,8.22
2018-12-18T18:16:48.234Z,8.22
2018-12-18T18:20:12.904Z,8.02
2018-12-18T18:23:37.564Z,8.18
2018-12-18T18:27:02.240Z,8.01
2018-12-18T18:30:26.879Z,8.32
2018-12-18T18:33:51.508Z,8.14
2018-12-18T18:37:16.156Z,8.11
2018-12-18T18:40:40.845Z,8.21
2018-12-18T18:44:05.602Z,8.00
2018-12-18T18:47:30.214Z,8.24
2018-12-18T18:50:57.550Z,7.96
2018-12-18T18:54:22.167Z,7.88
2018-12-18T18:57:46.819Z,7.87
2018-12-18T19:01:11.553Z,8.75
2018-12-18T19:04:36.358Z,8.93
2018-12-18T19:08:01.029Z,8.48
2018-12-18T19:11:25.636Z,9.19
2018-12-18T19:14:50.336Z,8.55
2018-12-18T19:18:15.011Z,8.40
2018-12-18T19:21:39.727Z,8.13
2018-12-18T19:25:04.549Z,8.32
2018-12-18T19:28:29.414Z,8.20
2018-12-18T19:31:54.053Z,8.20
2018-12-18T19:35:18.720Z,8.06
2018-12-18T19:38:43.412Z,8.03
2018-12-18T19:42:08.661Z,8.14
2018-12-18T19:45:33.652Z,8.23
2018-12-18T19:48:58.430Z,8.18
2018-12-18T19:52:23.071Z,7.99
2018-12-18T19:55:48.370Z,8.38
2018-12-18T19:59:13.006Z,8.41
2018-12-18T20:02:37.738Z,8.43
2018-12-18T20:06:02.555Z,8.29
2018-12-18T20:09:27.222Z,8.61
2018-12-18T20:12:51.883Z,8.45
2018-12-18T20:16:16.521Z,8.56
2018-12-18T20:19:41.511Z,8.42
2018-12-18T20:23:06.318Z,8.25
2018-12-18T20:26:30.971Z,8.50
2018-12-18T20:29:55.755Z,8.48
2018-12-18T20:33:20.438Z,8.48
2018-12-18T20:36:46.075Z,8.42
2018-12-18T20:40:11.934Z,8.51
2018-12-18T20:43:36.598Z,8.34
2018-12-18T20:47:01.820Z,8.52
2018-12-18T20:50:26.706Z,8.42
2018-12-18T20:53:51.495Z,8.69
2018-12-18T20:57:16.225Z,8.23
2018-12-18T21:00:40.882Z,8.42
2018-12-18T21:04:05.875Z,8.38
2018-12-18T21:07:30.814Z,8.46
2018-12-18T21:10:55.613Z,8.72
2018-12-18T21:14:20.335Z,8.36
2018-12-18T21:17:44.677Z,8.35
2018-12-18T21:21:15.232Z,8.26
2018-12-18T21:24:36.253Z,8.52
2018-12-18T21:28:04.444Z,8.48
2018-12-18T21:31:33.016Z,8.53
2018-12-18T21:34:57.706Z,8.58
2018-12-18T21:38:22.949Z,8.47
2018-12-18T21:42:10.889Z,8.54
2018-12-18T21:45:41.926Z,8.36
2018-12-18T22:05:38.245Z,8.67
2018-12-18T22:12:36.823Z,8.55
2018-12-18T22:16:01.510Z,8.74
2018-12-18T22:19:26.356Z,8.71
2018-12-18T22:22:51.214Z,8.59
2018-12-18T22:26:15.973Z,8.86
2018-12-18T22:29:40.666Z,8.67
2018-12-18T22:33:05.330Z,8.72
2018-12-18T22:36:30.003Z,8.74
2018-12-18T22:39:54.735Z,8.68
2018-12-18T22:43:19.413Z,8.81
2018-12-18T22:46:44.084Z,8.81
2018-12-18T22:50:09.487Z,8.87
2018-12-18T22:53:34.163Z,8.66
2018-12-18T22:56:58.896Z,8.60
2018-12-18T23:00:28.780Z,8.56
2018-12-18T23:03:53.113Z,8.70
2018-12-18T23:07:17.815Z,8.81
2018-12-18T23:10:42.456Z,8.39
2018-12-18T23:14:07.119Z,8.62
2018-12-18T23:17:31.791Z,8.59
2018-12-18T23:20:56.467Z,8.43
2018-12-18T23:24:21.226Z,8.44
2018-12-18T23:27:45.936Z,8.80
2018-12-18T23:31:10.610Z,8.74
2018-12-18T23:34:35.282Z,9.03
2018-12-18T23:37:59.971Z,8.68
2018-12-18T23:41:24.647Z,8.84
2018-12-18T23:44:49.395Z,8.75
2018-12-18T23:48:14.343Z,8.71
2018-12-18T23:51:39.034Z,8.65
2018-12-18T23:55:03.767Z,8.89
2018-12-18T23:58:28.456Z,8.73
